createdAt,value
2023-04-16T00:05:41.073Z,9.30
2023-04-16T00:15:46.154Z,9.30
2023-04-16T00:25:49.845Z,9.40
2023-04-16T00:35:54.905Z,9.40
2023-04-16T00:45:59.166Z,9.40
2023-04-16T00:56:06.931Z,9.40
2023-04-16T01:06:11.167Z,9.40
2023-04-16T01:16:16.263Z,9.40
2023-04-16T01:26:21.490Z,9.40
2023-04-16T01:36:26.811Z,9.40
2023-04-16T01:46:33.463Z,9.40
2023-04-16T01:56:37.286Z,9.40
2023-04-16T02:06:42.264Z,9.40
2023-04-16T02:16:46.647Z,9.40
2023-04-16T02:26:51.735Z,9.50
2023-04-16T02:36:55.428Z,9.40
2023-04-16T02:47:00.425Z,9.50
2023-04-16T02:57:04.226Z,9.50
2023-04-16T03:07:09.604Z,9.50
2023-04-16T03:17:13.319Z,9.40
2023-04-16T03:27:18.295Z,9.30
2023-04-16T03:37:22.074Z,9.30
2023-04-16T03:47:27.222Z,9.10
2023-04-16T03:57:31.162Z,9.00
2023-04-16T04:07:36.135Z,9.20
2023-04-16T04:17:39.959Z,9.30
2023-04-16T04:27:46.139Z,9.30
2023-04-16T04:37:50.145Z,9.30
2023-04-16T04:47:55.270Z,9.30
2023-04-16T04:57:58.972Z,9.30
2023-04-16T05:08:04.184Z,9.30
2023-04-16T05:18:07.950Z,9.30
2023-04-16T05:28:12.968Z,9.40
2023-04-16T05:38:16.614Z,9.40
2023-04-16T05:48:21.667Z,9.50
2023-04-16T05:58:25.256Z,9.50
2023-04-16T06:08:30.181Z,9.60
2023-04-16T06:18:33.819Z,9.60
2023-04-16T06:28:39.018Z,9.60
2023-04-16T06:38:42.654Z,9.50
2023-04-16T06:48:47.656Z,9.50
2023-04-16T06:58:52.010Z,9.50
2023-04-16T07:08:56.962Z,9.40
2023-04-16T07:19:00.609Z,9.40
2023-04-16T07:29:05.740Z,9.50
2023-04-16T07:39:10.872Z,9.60
2023-04-16T07:49:16.321Z,9.70
2023-04-16T07:59:23.514Z,9.70
2023-04-16T08:09:29.502Z,10.00
2023-04-16T08:19:33.274Z,10.20
2023-04-16T08:29:38.354Z,10.40
2023-04-16T08:39:41.992Z,10.40
2023-04-16T08:49:47.212Z,10.60
2023-04-16T08:59:55.756Z,10.50
2023-04-16T09:10:01.907Z,10.60
2023-04-16T09:20:10.847Z,10.70
2023-04-16T09:30:24.445Z,10.90
2023-04-16T09:40:30.601Z,10.90
2023-04-16T09:50:35.838Z,11.00
2023-04-16T10:00:43.345Z,11.20
2023-04-16T10:10:48.917Z,11.10
2023-04-16T10:20:53.234Z,11.10
2023-04-16T10:30:59.887Z,11.10
2023-04-16T10:41:05.658Z,11.10
2023-04-16T10:51:29.373Z,11.10
2023-04-16T11:01:34.815Z,11.00
2023-04-16T11:11:40.620Z,11.00
2023-04-16T11:21:46.385Z,10.80
2023-04-16T11:31:53.715Z,10.50
2023-04-16T11:41:57.548Z,10.30
2023-04-16T11:52:02.587Z,10.20
2023-04-16T12:02:06.381Z,10.40
2023-04-16T12:12:32.154Z,10.50
2023-04-16T12:22:37.766Z,10.50
2023-04-16T12:32:44.778Z,10.70
2023-04-16T12:42:48.704Z,10.80
2023-04-16T12:52:53.856Z,11.00
2023-04-16T13:02:57.810Z,11.30
2023-04-16T13:13:02.930Z,11.40
2023-04-16T13:23:06.866Z,11.30
2023-04-16T13:33:12.308Z,11.50
2023-04-16T13:43:19.101Z,11.60
2023-04-16T13:53:24.354Z,11.90
2023-04-16T14:03:28.601Z,11.90
2023-04-16T14:13:33.910Z,12.20
2023-04-16T14:23:37.611Z,12.40
2023-04-16T14:33:42.746Z,12.30
2023-04-16T14:43:46.598Z,12.30
2023-04-16T14:53:51.852Z,12.50
2023-04-16T15:03:57.472Z,12.40
2023-04-16T15:14:05.603Z,12.40
2023-04-16T15:24:10.174Z,12.40
2023-04-16T15:34:15.582Z,12.20
2023-04-16T15:44:19.430Z,12.30
2023-04-16T15:54:25.307Z,12.40
2023-04-16T16:04:29.155Z,12.50
2023-04-16T16:14:34.623Z,12.40
2023-04-16T16:24:38.734Z,12.30
2023-04-16T16:34:45.715Z,11.90
2023-04-16T16:44:57.533Z,11.60
2023-04-16T16:55:02.791Z,11.40
2023-04-16T17:05:07.904Z,11.20
2023-04-16T17:15:13.424Z,11.20
2023-04-16T17:25:17.215Z,11.10
2023-04-16T17:35:22.865Z,11.00
2023-04-16T17:45:26.613Z,10.90
2023-04-16T17:55:31.960Z,10.80
2023-04-16T18:05:35.705Z,10.80
2023-04-16T18:15:41.534Z,10.70
2023-04-16T18:25:45.480Z,10.70
2023-04-16T18:35:50.741Z,10.50
2023-04-16T18:45:54.514Z,10.30
2023-04-16T18:56:00.549Z,10.20
2023-04-16T19:06:06.806Z,10.10
2023-04-16T19:16:12.613Z,10.10
2023-04-16T19:26:16.740Z,10.10
2023-04-16T19:36:21.987Z,10.10
2023-04-16T19:46:25.880Z,10.00
2023-04-16T19:56:31.043Z,10.00
2023-04-16T20:06:34.782Z,9.90
2023-04-16T20:16:39.866Z,9.90
2023-04-16T20:26:43.597Z,9.80
2023-04-16T20:36:48.615Z,9.80
2023-04-16T20:46:55.368Z,9.80
2023-04-16T20:57:01.910Z,9.80
2023-04-16T21:07:06.552Z,9.80
2023-04-16T21:17:11.531Z,9.70
2023-04-16T21:27:15.342Z,9.70
2023-04-16T21:37:20.425Z,9.60
2023-04-16T21:47:24.189Z,9.70
2023-04-16T21:57:29.537Z,9.70
2023-04-16T22:07:33.211Z,9.60
2023-04-16T22:17:38.644Z,9.60
2023-04-16T22:27:42.472Z,9.80
2023-04-16T22:37:47.945Z,9.50
2023-04-16T22:47:51.698Z,9.50
2023-04-16T22:58:02.019Z,9.50
2023-04-16T23:08:20.457Z,9.50
2023-04-16T23:18:25.594Z,9.50
2023-04-16T23:28:29.575Z,9.40
2023-04-16T23:38:34.765Z,9.50
2023-04-16T23:48:38.437Z,9.40
2023-04-16T23:58:43.543Z,9.30
